Time;durP1;ratioP1;P1;durP2;ratioP2;P2;SDS_P1;SDS_P2;PMS_P1;PMS_P2;Temp;Humidity;BMP_temperature;BMP_pressure;BME280_temperature;BME280_humidity;BME280_pressure;Samples;Min_cycle;Max_cycle;Signal;HPM_P1;HPM_P2
2023/05/10 00:00:46;;;;;;;0.40;0.40;;;14.00;99.90;;;16.84;60.87;97001.72;4974751;28;20057;-37
2023/05/10 00:03:13;;;;;;;0.45;0.45;;;14.00;99.90;;;16.85;60.47;97006.09;4974728;28;20046;-36
2023/05/10 00:05:41;;;;;;;0.30;0.30;;;13.90;99.90;;;16.60;61.02;97008.69;4974728;28;20061;-36
2023/05/10 00:08:09;;;;;;;2.08;0.60;;;13.80;99.90;;;16.69;60.73;97009.22;4973354;28;20051;-37
2023/05/10 00:10:37;;;;;;;1.38;0.45;;;13.80;99.90;;;16.44;61.17;97001.09;4974545;28;20055;-36
2023/05/10 00:13:04;;;;;;;0.50;0.43;;;13.70;99.90;;;16.56;60.82;97004.78;4974664;28;20043;-37
2023/05/10 00:15:34;;;;;;;0.50;0.50;;;13.80;99.90;;;16.20;61.96;96992.72;4974535;28;20422;-36
2023/05/10 00:18:02;;;;;;;0.45;0.43;;;13.60;99.90;;;16.17;61.99;96995.00;4974258;28;20058;-37
2023/05/10 00:20:29;;;;;;;0.35;0.35;;;13.60;99.90;;;16.32;61.64;96996.41;4974518;28;20054;-37
2023/05/10 00:22:57;;;;;;;0.98;0.40;;;13.60;99.90;;;16.29;61.88;97007.56;4964863;28;20051;-37
2023/05/10 00:25:24;;;;;;;0.57;0.43;;;13.60;99.90;;;16.11;62.52;96996.69;4974382;28;20047;-36
2023/05/10 00:27:54;;;;;;;0.57;0.43;;;13.50;99.90;;;16.14;62.48;96994.41;4974163;28;20061;-36
2023/05/10 00:30:22;;;;;;;0.32;0.32;;;13.50;99.90;;;16.02;62.64;96996.13;4966432;28;20521;-36
2023/05/10 00:32:51;;;;;;;0.55;0.40;;;13.30;99.90;;;16.15;62.27;96992.56;4973378;28;20055;-36
2023/05/10 00:35:19;;;;;;;0.80;0.80;;;13.40;99.90;;;15.99;62.87;96991.16;4973550;28;20054;-36
2023/05/10 00:37:48;;;;;;;0.40;0.40;;;13.30;99.90;;;16.14;62.46;96988.22;4956976;28;20525;-36
2023/05/10 00:40:15;;;;;;;0.43;0.43;;;13.40;99.90;;;16.07;62.46;96992.78;4957259;28;20061;-36
2023/05/10 00:42:48;;;;;;;0.60;0.60;;;13.40;99.90;;;16.15;62.44;96995.25;4973029;28;20062;-36
2023/05/10 00:45:15;;;;;;;0.45;0.40;;;13.40;99.90;;;16.24;61.97;97002.00;4972150;28;20051;-36
2023/05/10 00:47:43;;;;;;;0.65;0.60;;;13.50;99.90;;;16.29;62.06;97004.06;4972658;28;20434;-36
2023/05/10 00:50:11;;;;;;;0.63;0.63;;;13.50;99.90;;;16.37;61.61;97008.38;4972012;28;20047;-36
2023/05/10 00:52:38;;;;;;;0.80;0.52;;;13.50;99.90;;;16.40;61.78;97013.31;4972680;28;20043;-36
2023/05/10 00:55:07;;;;;;;0.68;0.65;;;13.60;99.90;;;16.22;61.74;97019.38;4973637;28;20061;-36
2023/05/10 00:57:34;;;;;;;0.88;0.70;;;13.50;99.90;;;16.20;61.91;97027.66;4956085;28;20046;-36
2023/05/10 01:00:03;;;;;;;0.88;0.73;;;13.50;99.90;;;16.08;62.28;97018.59;4972193;28;20062;-36
2023/05/10 01:02:30;;;;;;;0.90;0.90;;;13.40;99.90;;;16.34;61.73;97023.88;4972213;28;20053;-36
2023/05/10 01:04:58;;;;;;;1.13;0.88;;;13.50;99.90;;;16.27;61.70;97025.78;4972530;28;20058;-36
2023/05/10 01:07:26;;;;;;;1.10;0.88;;;13.50;99.90;;;16.29;61.57;97025.56;4955987;28;20153;-37
2023/05/10 01:09:54;;;;;;;3.30;1.10;;;13.50;99.90;;;16.11;61.97;97019.00;4972496;28;20491;-36
2023/05/10 01:12:21;;;;;;;1.13;1.00;;;13.40;99.90;;;16.01;62.38;97026.66;4955993;28;20043;-36
2023/05/10 01:14:49;;;;;;;1.63;1.17;;;13.30;99.90;;;16.00;62.56;97025.03;4955953;28;20511;-36
2023/05/10 01:17:17;;;;;;;0.85;0.85;;;13.30;99.90;;;15.85;62.71;97030.63;4973048;28;20074;-36
2023/05/10 01:19:44;;;;;;;1.20;1.10;;;13.20;99.90;;;16.06;62.16;97026.88;4973054;28;20050;-36
2023/05/10 01:22:49;;;;;;;2.72;1.30;;;13.30;99.90;;;15.92;62.50;97023.41;4973528;28;20054;-36
2023/05/10 01:25:51;;;;;;;1.88;1.00;;;13.20;99.90;;;16.00;62.42;97024.22;4972799;28;20042;-36
2023/05/10 01:28:40;;;;;;;1.45;1.35;;;13.20;99.90;;;16.15;61.90;97030.16;4955856;28;20057;-36
2023/05/10 01:31:52;;;;;;;1.02;0.95;;;13.30;99.90;;;16.20;61.91;97040.25;4971795;28;20060;-36
2023/05/10 01:34:30;;;;;;;1.08;0.98;;;13.40;99.90;;;16.27;61.71;97031.13;4941627;28;20054;-36
2023/05/10 01:37:13;;;;;;;2.10;1.30;;;13.50;99.90;;;16.27;61.69;97038.38;4973603;28;20054;-36
2023/05/10 01:39:54;;;;;;;1.50;1.05;;;13.50;99.90;;;16.26;61.58;97037.53;4968077;28;20051;-36
2023/05/10 01:42:26;;;;;;;1.45;1.30;;;13.50;99.90;;;16.17;62.00;97046.03;4954550;28;20222;-36
2023/05/10 01:45:06;;;;;;;1.20;1.10;;;13.40;99.90;;;15.93;62.47;97027.72;4955392;28;20057;-36
2023/05/10 01:47:38;;;;;;;1.88;1.00;;;13.20;99.90;;;16.05;62.10;97021.69;4965995;28;20054;-36
2023/05/10 01:50:14;;;;;;;1.60;1.23;;;13.30;99.90;;;15.93;62.41;97027.72;4955229;28;20047;-36
2023/05/10 01:52:51;;;;;;;1.48;1.20;;;13.20;99.90;;;15.99;61.94;97030.59;4954943;28;20054;-36
2023/05/10 01:55:22;;;;;;;1.20;1.00;;;13.30;99.90;;;16.15;61.30;97032.84;4954334;28;20049;-36
2023/05/10 01:58:05;;;;;;;3.45;1.23;;;13.30;99.90;;;16.02;61.69;97046.31;4971400;28;20557;-36
2023/05/10 02:00:35;;;;;;;1.20;1.10;;;13.30;99.90;;;16.04;61.67;97044.22;4971697;28;20050;-36
2023/05/10 02:03:08;;;;;;;3.85;1.70;;;13.20;99.90;;;16.08;61.87;97046.28;4971553;28;20046;-36
2023/05/10 02:05:41;;;;;;;1.75;1.30;;;13.30;99.90;;;16.04;61.81;97049.59;4954863;28;20047;-36
2023/05/10 02:08:09;;;;;;;1.85;1.23;;;13.20;99.90;;;15.96;61.74;97055.19;4954657;28;20047;-36
2023/05/10 02:10:39;;;;;;;1.58;1.20;;;13.10;99.90;;;15.94;62.06;97047.34;4971459;28;20042;-36
2023/05/10 02:13:09;;;;;;;2.17;1.88;;;13.10;99.90;;;16.09;61.65;97049.78;4971190;28;20043;-36
2023/05/10 02:15:39;;;;;;;2.53;1.60;;;13.30;99.90;;;16.11;61.51;97045.88;4955007;28;20077;-36
2023/05/10 02:18:09;;;;;;;1.50;1.40;;;13.30;99.90;;;16.17;61.35;97048.72;4971061;28;20047;-36
2023/05/10 02:20:38;;;;;;;1.65;1.42;;;13.30;99.90;;;16.24;61.12;97047.66;4955038;28;20058;-36
2023/05/10 02:23:08;;;;;;;4.18;1.50;;;13.40;99.90;;;16.31;61.18;97050.34;4972240;28;20050;-36
2023/05/10 02:25:38;;;;;;;1.92;1.50;;;13.50;99.90;;;16.28;61.05;97054.25;4954890;28;20062;-36
2023/05/10 02:28:07;;;;;;;1.45;1.35;;;13.50;99.90;;;16.38;60.98;97058.38;4950588;28;20051;-36
2023/05/10 02:30:36;;;;;;;1.60;1.35;;;13.60;99.90;;;16.37;61.24;97062.09;4954668;28;20055;-36
2023/05/10 02:33:05;;;;;;;2.53;1.50;;;13.50;99.90;;;16.38;60.78;97061.06;4971237;28;20054;-36
2023/05/10 02:35:33;;;;;;;3.15;2.20;;;13.60;99.90;;;16.48;60.64;97069.50;4970869;28;20051;-36
2023/05/10 02:38:02;;;;;;;2.22;1.67;;;13.60;99.90;;;16.35;61.13;97073.06;4972034;28;20545;-36
2023/05/10 02:40:32;;;;;;;1.92;1.60;;;13.60;99.90;;;16.50;60.72;97081.69;4963132;28;20051;-36
2023/05/10 02:43:02;;;;;;;2.00;1.75;;;13.60;99.90;;;16.50;60.48;97075.50;4955133;28;20050;-36
2023/05/10 02:45:32;;;;;;;2.47;2.20;;;13.60;99.90;;;16.45;60.37;97076.09;4947389;28;20062;-36
2023/05/10 02:48:00;;;;;;;2.70;2.15;;;13.60;99.90;;;16.53;60.46;97081.25;4954354;28;20085;-36
2023/05/10 02:50:32;;;;;;;3.30;2.20;;;13.60;99.90;;;16.58;60.41;97079.81;4946647;28;20046;-36
2023/05/10 02:53:19;;;;;;;3.70;2.38;;;13.70;99.90;;;16.60;60.19;97078.53;4971917;28;20395;-36
2023/05/10 02:55:52;;;;;;;3.15;2.38;;;13.70;99.90;;;16.58;60.35;97075.25;4963082;28;20050;-36
2023/05/10 02:58:20;;;;;;;3.70;2.33;;;13.60;99.90;;;16.59;60.16;97079.56;4970353;28;20054;-36
2023/05/10 03:00:48;;;;;;;2.53;1.98;;;13.60;99.90;;;16.56;60.20;97076.50;4954396;28;20533;-36
2023/05/10 03:03:15;;;;;;;2.67;2.28;;;13.60;99.90;;;16.54;60.10;97077.53;4970739;28;20395;-36
2023/05/10 03:05:43;;;;;;;3.28;2.50;;;13.60;99.90;;;16.58;60.14;97077.13;4970207;28;20055;-36
2023/05/10 03:08:11;;;;;;;3.40;2.47;;;13.60;99.90;;;16.59;59.91;97074.19;4957302;28;20074;-36
2023/05/10 03:10:55;;;;;;;3.58;2.45;;;13.60;99.90;;;16.53;60.21;97081.25;4950475;28;20050;-36
2023/05/10 03:13:36;;;;;;;3.08;2.75;;;13.60;99.90;;;16.52;60.23;97078.78;4958586;28;20070;-36
2023/05/10 03:16:11;;;;;;;4.68;2.50;;;13.60;99.90;;;16.57;60.23;97083.50;4959067;28;20051;-36
2023/05/10 03:19:01;;;;;;;3.50;2.72;;;13.60;99.90;;;16.62;60.17;97083.72;4949946;28;20495;-36
2023/05/10 03:21:31;;;;;;;3.03;2.60;;;13.70;99.90;;;16.66;60.25;97090.31;4975459;28;20042;-36
2023/05/10 03:24:07;;;;;;;3.00;2.63;;;13.80;99.90;;;16.66;60.05;97091.13;4957813;28;20047;-36
2023/05/10 03:26:38;;;;;;;3.10;2.45;;;13.80;99.90;;;16.67;59.86;97091.94;4951210;28;20047;-36
2023/05/10 03:29:15;;;;;;;3.30;2.50;;;13.80;99.90;;;16.71;59.80;97088.63;4957465;28;20062;-36
2023/05/10 03:31:43;;;;;;;3.50;2.80;;;13.80;99.90;;;16.73;59.99;97091.94;4957251;28;20047;-36
2023/05/10 03:34:11;;;;;;;4.53;2.40;;;13.80;99.90;;;16.73;59.70;97091.09;4965301;28;20050;-36
2023/05/10 03:36:38;;;;;;;3.05;2.55;;;13.80;99.90;;;16.70;59.81;97092.34;4965763;28;20396;-36
2023/05/10 03:39:06;;;;;;;2.83;2.33;;;13.80;99.90;;;16.70;59.92;97086.16;4956885;28;20517;-36
2023/05/10 03:41:35;;;;;;;2.85;2.55;;;13.80;99.90;;;16.74;59.91;97090.06;4975046;28;20058;-36
2023/05/10 03:44:02;;;;;;;3.10;2.65;;;13.90;99.90;;;16.74;59.76;97096.25;4965573;28;20042;-36
2023/05/10 03:46:30;;;;;;;2.90;2.60;;;13.80;99.90;;;16.78;59.62;97104.72;4974928;28;20049;-36
2023/05/10 03:48:58;;;;;;;4.85;2.40;;;13.90;99.90;;;16.81;59.42;97090.84;4973546;28;20050;-36
2023/05/10 03:51:27;;;;;;;5.22;2.50;;;13.90;99.90;;;16.83;59.51;97098.75;4974847;28;20095;-36
2023/05/10 03:53:55;;;;;;;3.45;1.85;;;13.90;99.90;;;16.87;59.32;97111.53;4957627;28;20462;-36
2023/05/10 03:56:23;;;;;;;3.25;2.30;;;14.00;99.90;;;16.86;59.18;97107.19;4957371;28;20429;-36
2023/05/10 03:58:51;;;;;;;3.97;2.00;;;14.00;99.90;;;16.84;59.09;97111.13;4973482;28;20051;-36
2023/05/10 04:01:18;;;;;;;2.33;1.95;;;13.90;99.90;;;16.76;59.35;97112.16;4973401;28;20533;-36
2023/05/10 04:03:47;;;;;;;2.60;2.08;;;13.90;99.90;;;16.77;59.11;97103.06;4964681;28;20419;-36
2023/05/10 04:06:14;;;;;;;2.22;1.83;;;13.90;99.90;;;16.81;59.13;97114.19;4957178;28;20462;-37
2023/05/10 04:08:42;;;;;;;3.97;2.05;;;13.90;99.90;;;16.83;58.99;97109.50;4974664;28;20054;-36
2023/05/10 04:11:12;;;;;;;2.45;1.77;;;14.00;99.90;;;16.83;58.92;97109.50;4973285;28;20062;-36
2023/05/10 04:13:40;;;;;;;3.92;2.10;;;14.00;99.90;;;16.71;58.95;97103.91;4957047;28;20447;-36
2023/05/10 04:16:07;;;;;;;2.00;1.70;;;13.90;99.90;;;16.71;58.92;97110.13;4974300;28;20053;-36
2023/05/10 04:18:35;;;;;;;1.70;1.60;;;13.80;99.90;;;16.70;58.82;97111.16;4965467;28;20058;-36
2023/05/10 04:21:03;;;;;;;2.30;1.65;;;13.80;99.90;;;16.69;58.90;97104.16;4974519;28;20057;-36
2023/05/10 04:23:30;;;;;;;1.73;1.63;;;13.90;99.90;;;16.69;58.83;97114.03;4972841;28;20059;-36
2023/05/10 04:26:01;;;;;;;2.10;1.83;;;13.80;99.90;;;16.64;58.77;97108.50;4974100;28;20050;-36
2023/05/10 04:28:29;;;;;;;3.92;2.25;;;13.80;99.90;;;16.52;59.20;97119.91;4974138;28;20430;-36
2023/05/10 04:31:06;;;;;;;2.40;1.92;;;13.70;99.90;;;16.56;58.84;97123.00;4973381;28;20047;-36
2023/05/10 04:33:35;;;;;;;5.05;1.95;;;13.70;99.90;;;16.51;58.92;97123.63;4974475;28;20046;-36
2023/05/10 04:36:03;;;;;;;2.35;2.05;;;13.70;99.90;;;16.40;59.32;97116.25;4973755;28;20051;-36
2023/05/10 04:38:31;;;;;;;2.50;2.22;;;13.60;99.90;;;16.50;59.17;97119.28;4973983;28;20051;-36
2023/05/10 04:41:09;;;;;;;2.75;2.20;;;13.60;99.90;;;16.60;59.11;97121.53;4974008;28;20054;-36
2023/05/10 04:43:37;;;;;;;3.67;1.92;;;13.70;99.90;;;16.53;59.05;97118.84;4965346;28;20042;-36
2023/05/10 04:46:05;;;;;;;2.20;1.95;;;13.70;99.90;;;16.50;59.12;97126.53;4973977;28;20065;-36
2023/05/10 04:48:33;;;;;;;2.53;2.33;;;13.60;99.90;;;16.58;59.23;97128.16;4955387;28;20422;-36
2023/05/10 04:51:01;;;;;;;2.83;2.33;;;13.60;99.90;;;16.62;59.17;97124.84;4973989;28;20051;-36
2023/05/10 04:53:28;;;;;;;2.40;2.00;;;13.70;99.90;;;16.60;59.09;97129.59;4973771;28;20043;-36
2023/05/10 04:55:56;;;;;;;3.10;2.10;;;13.70;99.90;;;16.51;59.27;97134.38;4973706;28;20050;-36
2023/05/10 04:58:23;;;;;;;3.72;1.85;;;13.70;99.90;;;16.58;59.11;97137.03;4973466;28;20082;-36
2023/05/10 05:00:51;;;;;;;4.13;2.90;;;13.70;99.90;;;16.63;59.11;97139.09;4973658;28;20046;-36
2023/05/10 05:03:18;;;;;;;2.88;1.92;;;13.70;99.90;;;16.70;59.01;97137.22;4973481;28;20050;-36
2023/05/10 05:05:46;;;;;;;2.80;2.25;;;13.80;99.90;;;16.76;58.66;97143.59;4973572;28;20043;-36
2023/05/10 05:08:14;;;;;;;3.72;2.15;;;13.90;99.90;;;16.78;58.73;97141.53;4973256;28;20043;-36
2023/05/10 05:10:41;;;;;;;4.50;2.38;;;13.90;99.90;;;16.83;58.83;97141.75;4973091;28;20122;-36
2023/05/10 05:13:09;;;;;;;2.90;2.35;;;14.00;99.90;;;16.86;58.81;97141.31;4973451;28;20049;-36
2023/05/10 05:15:36;;;;;;;2.85;2.42;;;14.00;99.90;;;16.85;58.89;97142.38;4973178;28;20050;-36
2023/05/10 05:18:04;;;;;;;3.70;2.30;;;14.00;99.90;;;16.92;58.60;97151.19;4973289;28;20043;-36
2023/05/10 05:20:34;;;;;;;3.40;2.33;;;14.10;99.90;;;16.84;58.87;97151.44;4973148;28;20392;-36
2023/05/10 05:23:02;;;;;;;3.50;2.38;;;14.00;99.90;;;16.88;58.65;97153.50;4973217;28;20042;-37
2023/05/10 05:25:30;;;;;;;2.53;2.03;;;14.00;99.90;;;16.89;58.60;97157.03;4972952;28;20056;-37
2023/05/10 05:27:57;;;;;;;3.67;2.30;;;14.00;99.90;;;16.87;58.75;97157.22;4970277;28;20047;-36
2023/05/10 05:30:25;;;;;;;2.75;2.13;;;14.00;99.90;;;16.84;58.62;97160.34;4971849;28;20463;-40
2023/05/10 05:32:52;;;;;;;2.38;1.90;;;13.90;99.90;;;16.82;58.91;97159.72;4973223;28;20046;-36
2023/05/10 05:35:20;;;;;;;3.63;2.20;;;13.90;99.90;;;16.88;58.94;97156.19;4972946;28;20050;-36
2023/05/10 05:37:48;;;;;;;3.55;2.55;;;14.00;99.90;;;16.92;58.93;97159.28;4972944;28;20065;-36
2023/05/10 05:40:15;;;;;;;3.10;2.55;;;14.00;99.90;;;16.90;58.79;97162.19;4972350;28;20039;-37
2023/05/10 05:42:43;;;;;;;2.97;2.40;;;14.00;99.90;;;16.91;58.90;97163.84;4972842;28;20054;-37
2023/05/10 05:45:12;;;;;;;5.35;3.17;;;14.00;99.90;;;16.92;58.70;97161.97;4973116;28;20043;-37
2023/05/10 05:47:40;;;;;;;4.38;2.60;;;14.00;99.90;;;16.92;58.76;97160.13;4964923;28;20410;-37
2023/05/10 05:50:09;;;;;;;3.47;2.63;;;14.10;99.90;;;17.00;58.78;97163.59;4973070;28;20074;-37
2023/05/10 05:52:36;;;;;;;4.00;2.28;;;14.10;99.90;;;17.01;58.78;97162.56;4973044;28;20046;-36
2023/05/10 05:55:04;;;;;;;5.30;2.28;;;14.20;99.90;;;16.96;58.34;97159.69;4972624;28;20038;-36
2023/05/10 05:57:32;;;;;;;3.65;2.10;;;14.10;99.90;;;16.89;58.72;97162.41;4972658;28;20494;-36
2023/05/10 06:00:00;;;;;;;2.70;2.00;;;14.00;99.90;;;16.84;58.67;97164.91;4972203;28;20054;-37
2023/05/10 06:02:27;;;;;;;3.20;2.25;;;13.90;99.90;;;16.87;58.94;97170.69;4972579;28;20501;-41
2023/05/10 06:04:55;;;;;;;5.43;2.72;;;14.00;99.90;;;17.00;58.61;97172.50;4972857;28;20042;-36
2023/05/10 06:07:22;;;;;;;2.83;1.90;;;14.10;99.90;;;16.93;58.86;97177.06;4972378;28;20046;-37
2023/05/10 06:09:50;;;;;;;3.78;2.13;;;14.10;99.90;;;16.97;58.57;97174.78;4972393;28;20407;-37
2023/05/10 06:12:17;;;;;;;3.55;2.05;;;14.10;99.90;;;16.89;58.66;97176.66;4972565;28;20042;-37
2023/05/10 06:14:45;;;;;;;2.63;2.10;;;14.00;99.90;;;16.81;59.07;97176.88;4955005;28;20507;-37
2023/05/10 06:17:13;;;;;;;2.30;2.10;;;14.00;99.90;;;16.98;58.71;97189.84;4972166;28;20061;-37
2023/05/10 06:19:41;;;;;;;3.45;2.05;;;14.10;99.90;;;17.09;58.50;97183.81;4964455;28;20043;-37
2023/05/10 06:22:09;;;;;;;4.78;2.55;;;14.20;99.90;;;17.16;58.25;97190.00;4972448;28;20050;-37
2023/05/10 06:24:36;;;;;;;2.30;1.83;;;14.30;99.90;;;17.17;58.07;97188.13;4955112;28;20051;-37
2023/05/10 06:27:04;;;;;;;3.22;2.50;;;14.30;99.90;;;17.16;58.11;97189.16;4972041;28;20404;-37
2023/05/10 06:29:31;;;;;;;6.07;2.40;;;14.30;99.90;;;17.28;58.22;97182.06;4972155;28;20047;-37
2023/05/10 06:31:59;;;;;;;3.65;2.10;;;14.50;99.90;;;17.40;57.53;97187.59;4971396;28;20416;-37
2023/05/10 06:34:26;;;;;;;2.50;2.08;;;14.60;99.90;;;17.46;57.48;97184.84;4972396;28;20475;-37
2023/05/10 06:36:54;;;;;;;3.85;2.08;;;14.70;99.90;;;17.57;57.15;97188.72;4962585;28;20051;-37
2023/05/10 06:39:22;;;;;;;3.22;1.90;;;14.80;99.90;;;17.69;56.86;97199.63;4971817;28;20434;-37
2023/05/10 06:41:49;;;;;;;1.88;1.63;;;14.80;99.90;;;17.70;56.91;97187.84;4971698;28;20051;-37
2023/05/10 06:44:19;;;;;;;5.57;1.60;;;14.90;99.90;;;17.79;56.46;97199.97;4970870;28;20433;-37
2023/05/10 06:46:46;;;;;;;2.88;1.90;;;15.00;99.90;;;17.64;55.81;97194.91;4970674;28;20043;-37
2023/05/10 06:49:14;;;;;;;2.03;1.20;;;14.80;99.90;;;17.67;56.13;97197.16;4971987;28;20035;-37
2023/05/10 06:51:41;;;;;;;4.38;1.50;;;14.80;99.90;;;17.70;55.71;97198.59;4972084;28;20541;-37
2023/05/10 06:54:09;;;;;;;2.67;1.45;;;14.90;99.90;;;17.75;56.05;97196.06;4972182;28;20487;-37
2023/05/10 06:56:36;;;;;;;1.83;1.60;;;15.00;99.90;;;17.76;55.79;97204.94;4971913;28;20066;-38
2023/05/10 06:59:04;;;;;;;2.03;1.60;;;15.00;99.90;;;17.82;55.59;97204.09;4970396;28;20054;-37
2023/05/10 07:01:32;;;;;;;2.30;1.65;;;15.00;99.90;;;17.90;55.57;97203.88;4971970;28;20069;-37
2023/05/10 07:03:59;;;;;;;2.83;1.55;;;15.10;99.90;;;17.97;55.09;97204.66;4972134;28;20038;-37
2023/05/10 07:06:27;;;;;;;1.58;1.40;;;15.20;99.90;;;18.04;55.08;97205.41;4971812;28;20050;-37
2023/05/10 07:09:00;;;;;;;1.40;1.30;;;15.30;99.90;;;18.12;55.01;97206.19;4955231;28;20050;-37
2023/05/10 07:11:28;;;;;;;2.55;1.90;;;15.30;99.90;;;18.18;55.08;97203.41;4971851;28;20046;-37
2023/05/10 07:13:56;;;;;;;1.90;1.30;;;15.30;99.90;;;18.24;54.94;97205.25;4971803;28;20490;-37
2023/05/10 07:16:23;;;;;;;2.97;1.63;;;15.40;99.90;;;18.29;54.79;97202.69;4971763;28;20051;-37
2023/05/10 07:18:52;;;;;;;2.13;1.33;;;15.50;99.90;;;18.36;54.33;97208.06;4971853;28;20054;-37
2023/05/10 07:21:20;;;;;;;4.75;1.70;;;15.60;99.90;;;18.21;54.53;97218.34;4970654;28;20051;-37
2023/05/10 07:23:48;;;;;;;1.48;1.15;;;15.40;99.90;;;17.90;54.13;97222.72;4970604;28;20054;-37
2023/05/10 07:26:16;;;;;;;2.58;1.77;;;15.20;99.90;;;17.96;53.86;97216.44;4971726;28;20434;-37
2023/05/10 07:28:43;;;;;;;1.70;1.30;;;15.10;99.90;;;18.04;53.92;97216.16;4971662;28;20039;-37
2023/05/10 07:31:11;;;;;;;3.15;1.33;;;15.10;99.90;;;17.92;54.05;97222.50;4971124;28;20038;-37
2023/05/10 07:33:38;;;;;;;2.60;1.50;;;15.00;99.90;;;18.09;53.96;97224.44;4971741;28;20046;-38
2023/05/10 07:36:06;;;;;;;1.83;1.73;;;15.20;99.90;;;18.07;53.61;97225.72;4971470;28;20047;-37
2023/05/10 07:38:34;;;;;;;2.65;1.50;;;15.20;99.90;;;18.04;53.85;97226.94;4971260;28;20050;-37
2023/05/10 07:41:01;;;;;;;2.05;1.30;;;15.20;99.90;;;17.98;53.78;97222.44;4971756;28;20038;-37
2023/05/10 07:43:29;;;;;;;1.90;1.60;;;15.20;99.90;;;18.07;53.90;97225.72;4971594;28;20051;-37
2023/05/10 07:45:57;;;;;;;1.70;1.30;;;15.30;99.90;;;18.16;53.46;97226.25;4971565;28;20049;-37
2023/05/10 07:48:25;;;;;;;1.38;1.20;;;15.40;99.90;;;18.05;53.15;97225.91;4969543;28;20062;-37
2023/05/10 07:50:53;;;;;;;1.98;1.20;;;15.30;99.90;;;18.20;52.70;97227.44;4971516;28;20043;-37
2023/05/10 07:53:20;;;;;;;0.80;0.80;;;15.30;99.90;;;18.03;52.99;97228.00;4972031;28;20038;-37
2023/05/10 07:55:54;;;;;;;1.27;0.90;;;15.20;99.90;;;18.07;53.13;97231.91;4967328;28;20050;-37
2023/05/10 07:58:21;;;;;;;1.65;0.88;;;15.30;99.90;;;17.85;52.26;97230.59;4957604;28;20051;-37
2023/05/10 08:00:49;;;;;;;2.55;1.00;;;15.10;99.80;;;17.93;52.48;97233.03;4974063;28;20042;-37
2023/05/10 08:03:17;;;;;;;1.27;0.60;;;15.10;99.90;;;17.85;52.02;97230.59;4974916;28;20050;-37
2023/05/10 08:05:44;;;;;;;0.90;0.90;;;15.00;99.90;;;17.86;52.40;97235.78;4974396;28;20070;-37
2023/05/10 08:08:12;;;;;;;2.83;1.38;;;15.00;99.90;;;17.59;53.03;97231.59;4974485;28;20051;-37
2023/05/10 08:10:39;;;;;;;0.93;0.88;;;15.00;99.90;;;17.75;52.77;97238.31;4974742;28;20420;-37
2023/05/10 08:13:07;;;;;;;1.88;1.23;;;15.00;99.90;;;17.83;52.34;97236.19;4974665;28;20050;-37
2023/05/10 08:15:34;;;;;;;1.35;0.85;;;15.00;99.90;;;17.94;52.31;97233.88;4974857;28;20054;-38
2023/05/10 08:18:02;;;;;;;0.70;0.70;;;15.10;99.90;;;17.90;51.99;97236.19;4974254;28;20047;-38
2023/05/10 08:20:30;;;;;;;1.35;0.88;;;15.10;99.90;;;17.84;51.38;97237.88;4974579;28;20067;-38
2023/05/10 08:22:57;;;;;;;1.00;0.80;;;15.10;99.90;;;17.71;51.82;97246.81;4975047;28;20043;-38
2023/05/10 08:25:25;;;;;;;0.95;0.80;;;15.10;99.90;;;17.57;52.20;97241.75;4974268;28;20047;-38
2023/05/10 08:27:53;;;;;;;1.65;1.00;;;15.00;99.90;;;17.82;51.99;97249.88;4973486;28;20054;-38
2023/05/10 08:30:20;;;;;;;4.60;1.00;;;15.10;99.90;;;17.78;51.51;97244.09;4968736;28;20055;-38
2023/05/10 08:32:48;;;;;;;0.80;0.70;;;15.10;99.90;;;17.93;51.33;97243.81;4974393;28;20069;-38
2023/05/10 08:35:16;;;;;;;1.48;1.00;;;15.20;99.90;;;18.09;51.00;97245.16;4974447;28;20046;-38
2023/05/10 08:37:43;;;;;;;1.17;0.73;;;15.40;95.50;;;18.03;51.02;97246.88;4974190;28;20523;-38
2023/05/10 08:40:12;;;;;;;1.50;0.95;;;15.40;97.30;;;18.15;50.68;97252.38;4974330;28;20047;-38
2023/05/10 08:42:48;;;;;;;1.65;1.00;;;15.50;94.60;;;17.95;50.79;97249.81;4956021;28;20055;-37
2023/05/10 08:45:17;;;;;;;4.03;0.90;;;15.40;94.70;;;18.20;50.43;97246.31;4974101;28;20518;-38
2023/05/10 08:47:46;;;;;;;2.15;0.80;;;15.60;95.20;;;18.06;50.12;97248.28;4973669;28;20042;-38
2023/05/10 08:50:16;;;;;;;1.77;0.90;;;15.60;92.70;;;17.81;50.42;97267.88;4973074;28;20047;-38
2023/05/10 08:52:48;;;;;;;1.23;1.08;;;15.40;91.80;;;17.66;51.32;97252.03;4956752;28;20053;-38
2023/05/10 08:55:16;;;;;;;5.47;2.97;;;15.30;94.60;;;17.23;52.26;97251.81;4973907;28;20031;-38
2023/05/10 08:57:44;;;;;;;1.58;1.48;;;15.20;95.00;;;17.71;51.54;97246.00;4972496;28;20533;-38
2023/05/10 09:00:13;;;;;;;0.93;0.70;;;15.30;96.40;;;18.03;51.46;97259.47;4972400;28;20050;-38
2023/05/10 09:02:42;;;;;;;1.73;0.85;;;15.60;95.20;;;18.37;50.67;97265.47;4972585;28;20054;-38
2023/05/10 09:05:10;;;;;;;1.58;0.95;;;15.90;94.90;;;18.42;50.20;97257.53;4973272;28;20046;-38
2023/05/10 09:07:38;;;;;;;0.60;0.60;;;15.90;89.70;;;18.06;50.91;97267.13;4956509;28;20043;-37
2023/05/10 09:10:06;;;;;;;2.63;1.05;;;15.70;92.20;;;18.33;50.63;97267.75;4956020;28;20050;-38
2023/05/10 09:12:35;;;;;;;0.80;0.70;;;15.90;93.90;;;18.19;49.73;97269.75;4972577;28;20410;-38
2023/05/10 09:15:05;;;;;;;0.85;0.85;;;15.70;89.60;;;17.88;51.30;97266.00;4973647;28;20046;-38
2023/05/10 09:17:34;;;;;;;0.90;0.90;;;15.60;92.20;;;18.21;50.84;97272.22;4973452;28;20050;-38
2023/05/10 09:20:04;;;;;;;1.13;0.98;;;15.70;92.70;;;18.29;50.46;97271.94;4972032;28;20047;-38
2023/05/10 09:22:33;;;;;;;1.00;0.93;;;15.80;92.90;;;18.37;50.23;97276.22;4973400;28;20518;-38
2023/05/10 09:25:13;;;;;;;1.35;0.93;;;15.90;90.60;;;18.32;49.94;97274.22;4973400;28;20049;-38
2023/05/10 09:27:45;;;;;;;1.13;0.75;;;15.80;89.20;;;18.25;49.56;97284.19;4973332;28;20434;-38
2023/05/10 09:30:30;;;;;;;1.58;1.05;;;15.70;88.00;;;18.17;49.98;97279.91;4973177;28;20038;-38
2023/05/10 09:32:59;;;;;;;1.52;0.90;;;15.60;89.50;;;18.14;50.31;97288.41;4966249;28;20051;-38
2023/05/10 09:35:30;;;;;;;2.25;0.93;;;15.60;91.60;;;18.46;49.98;97285.69;4972260;28;20046;-38
2023/05/10 09:38:02;;;;;;;2.20;0.90;;;15.80;90.40;;;18.33;48.81;97285.81;4971826;28;20043;-38
2023/05/10 09:40:31;;;;;;;2.38;1.20;;;15.80;85.00;;;18.28;49.86;97289.13;4973103;28;20479;-38
2023/05/10 09:43:06;;;;;;;0.80;0.80;;;15.70;89.30;;;18.33;49.13;97292.00;4973079;28;20046;-38
2023/05/10 09:45:35;;;;;;;0.80;0.80;;;15.80;86.40;;;18.29;49.35;97293.50;4972598;28;20061;-38
2023/05/10 09:48:06;;;;;;;0.90;0.90;;;15.70;86.40;;;18.11;49.79;97280.78;4972891;28;20271;-38
2023/05/10 09:50:34;;;;;;;1.73;0.90;;;15.60;88.30;;;18.39;49.53;97290.31;4971820;28;20054;-38
2023/05/10 09:53:03;;;;;;;1.08;0.95;;;15.70;89.40;;;18.41;49.39;97288.22;4972979;28;20095;-38
2023/05/10 09:55:46;;;;;;;1.98;1.05;;;15.70;88.20;;;18.60;49.46;97291.81;4971392;28;20042;-38
2023/05/10 09:58:14;;;;;;;2.63;1.10;;;15.90;87.10;;;18.72;49.21;97290.00;4972638;28;20049;-38
2023/05/10 10:00:45;;;;;;;2.75;1.00;;;16.20;87.40;;;18.68;49.37;97296.91;4971681;28;20521;-38
2023/05/10 10:03:16;;;;;;;1.00;1.00;;;16.20;87.00;;;18.79;48.97;97296.19;4971575;28;20047;-38
2023/05/10 10:05:44;;;;;;;0.90;0.90;;;16.30;84.40;;;18.50;49.16;97295.00;4972350;28;20062;-38
2023/05/10 10:08:13;;;;;;;1.33;1.20;;;16.10;85.40;;;18.83;48.95;97294.72;4972428;28;20054;-38
2023/05/10 10:10:42;;;;;;;2.47;0.85;;;16.30;85.80;;;18.72;48.34;97291.91;4972513;28;20051;-38
2023/05/10 10:13:09;;;;;;;1.65;1.27;;;16.20;83.00;;;18.97;48.16;97298.09;4971607;28;20047;-38
2023/05/10 10:15:37;;;;;;;1.20;1.10;;;16.40;82.80;;;18.46;48.48;97294.59;4954689;28;20038;-38
2023/05/10 10:18:06;;;;;;;1.35;0.90;;;16.10;82.00;;;18.84;48.22;97307.16;4970498;28;20046;-38
2023/05/10 10:20:36;;;;;;;1.85;1.10;;;16.30;82.30;;;18.60;47.84;97297.19;4955300;28;20050;-38
2023/05/10 10:23:04;;;;;;;0.82;0.80;;;16.20;81.00;;;18.63;48.07;97305.66;4971414;28;20414;-38
2023/05/10 10:25:32;;;;;;;0.60;0.60;;;16.20;81.50;;;18.72;48.03;97308.06;4972706;28;20066;-38
2023/05/10 10:28:48;;;;;;;0.95;0.75;;;16.10;80.70;;;18.91;47.45;97301.69;4954639;28;20484;-38
2023/05/10 10:31:40;;;;;;;2.08;0.88;;;16.30;80.20;;;18.66;47.43;97297.13;4967250;28;20042;-38